Time,TemperatureF,DewpointF,PressureIn,WindDirection,WindDirectionDegrees,WindSpeedMPH,WindSpeedGustMPH,Humidity,HourlyPrecipIn,Conditions,Clouds,dailyrainin,SoftwareType,DateUTC
2013-04-02 00:03:00,64.0,60.0,30.04,West,276,3.0,5.0,86,-99.99,,,-99.99,,2013-04-02 04:03:00,
2013-04-02 00:13:00,64.0,60.0,30.04,West,276,3.0,5.0,86,-99.99,,,-99.99,,2013-04-02 04:13:00,
2013-04-02 00:23:00,64.0,60.0,30.04,West,276,3.0,5.0,86,-99.99,,,-99.99,,2013-04-02 04:23:00,
2013-04-02 00:33:00,64.0,60.0,30.04,West,261,3.0,4.0,86,-99.99,,,-99.99,,2013-04-02 04:33:00,
2013-04-02 00:43:00,64.0,60.0,30.04,West,265,3.0,4.0,86,-99.99,,,-99.99,,2013-04-02 04:43:00,
2013-04-02 00:53:00,64.0,60.0,30.04,West,265,3.0,4.0,86,-99.99,,,-99.99,,2013-04-02 04:53:00,
2013-04-02 01:02:00,64.0,60.0,30.04,West,270,3.0,5.0,87,-99.99,,,-99.99,,2013-04-02 05:02:00,
2013-04-02 01:12:00,63.0,60.0,30.04,WSW,257,3.0,4.0,87,-99.99,,,-99.99,,2013-04-02 05:12:00,
2013-04-02 01:22:00,63.0,60.0,30.04,WSW,257,3.0,4.0,87,-99.99,,,-99.99,,2013-04-02 05:22:00,
2013-04-02 01:32:00,63.0,59.0,30.04,SW,235,2.0,3.0,88,-99.99,,,-99.99,,2013-04-02 05:32:00,
2013-04-02 01:43:00,63.0,60.0,30.03,SW,221,2.0,3.0,89,-99.99,,,-99.99,,2013-04-02 05:43:00,
2013-04-02 01:52:00,63.0,60.0,30.03,SW,221,2.0,3.0,89,-99.99,,,-99.99,,2013-04-02 05:52:00,
2013-04-02 02:02:00,63.0,60.0,30.03,SW,220,3.0,5.0,90,-99.99,,,-99.99,,2013-04-02 06:02:00,
2013-04-02 02:12:00,63.0,60.0,30.03,SW,232,4.0,4.0,91,-99.99,,,-99.99,,2013-04-02 06:12:00,
2013-04-02 02:22:00,63.0,60.0,30.03,SW,232,4.0,4.0,91,-99.99,,,-99.99,,2013-04-02 06:22:00,
2013-04-02 02:32:00,62.0,60.0,30.03,SW,220,2.0,3.0,91,-99.99,,,-99.99,,2013-04-02 06:32:00,
2013-04-02 02:42:00,62.0,59.0,30.03,SW,229,2.0,3.0,91,-99.99,,,-99.99,,2013-04-02 06:42:00,
2013-04-02 02:52:00,62.0,59.0,30.03,SW,229,2.0,3.0,91,-99.99,,,-99.99,,2013-04-02 06:52:00,
2013-04-02 03:02:00,62.0,60.0,30.04,WSW,251,2.0,3.0,92,-99.99,,,-99.99,,2013-04-02 07:02:00,
2013-04-02 03:13:00,62.0,60.0,30.04,West,262,2.0,3.0,92,-99.99,,,-99.99,,2013-04-02 07:13:00,
2013-04-02 03:22:00,62.0,60.0,30.04,West,262,2.0,3.0,92,-99.99,,,-99.99,,2013-04-02 07:22:00,
2013-04-02 03:32:00,62.0,60.0,30.04,West,262,2.0,3.0,92,-99.99,,,-99.99,,2013-04-02 07:32:00,
2013-04-02 03:43:00,61.0,59.0,30.03,West,274,4.0,5.0,92,-99.99,,,-99.99,,2013-04-02 07:43:00,
2013-04-02 03:53:00,61.0,59.0,30.03,West,274,4.0,5.0,92,-99.99,,,-99.99,,2013-04-02 07:53:00,
2013-04-02 04:02:00,60.0,58.0,30.03,West,271,4.0,6.0,92,-99.99,,,-99.99,,2013-04-02 08:02:00,
2013-04-02 04:13:00,60.0,58.0,30.03,WSW,247,3.0,4.0,93,-99.99,,,-99.99,,2013-04-02 08:13:00,
2013-04-02 04:22:00,60.0,58.0,30.03,WSW,247,3.0,4.0,93,-99.99,,,-99.99,,2013-04-02 08:22:00,
2013-04-02 04:32:00,60.0,58.0,30.03,WSW,247,3.0,4.0,93,-99.99,,,-99.99,,2013-04-02 08:32:00,
2013-04-02 04:42:00,57.0,56.0,30.03,SSW,207,2.0,3.0,93,-99.99,,,-99.99,,2013-04-02 08:42:00,
2013-04-02 04:52:00,57.0,56.0,30.03,SSW,207,2.0,3.0,93,-99.99,,,-99.99,,2013-04-02 08:52:00,
2013-04-02 05:02:00,58.0,56.0,30.03,SW,230,2.0,3.0,93,-99.99,,,-99.99,,2013-04-02 09:02:00,
2013-04-02 05:13:00,56.0,54.0,30.03,WSW,252,1.0,2.0,93,-99.99,,,-99.99,,2013-04-02 09:13:00,
2013-04-02 05:22:00,56.0,54.0,30.03,WSW,252,1.0,2.0,93,-99.99,,,-99.99,,2013-04-02 09:22:00,
2013-04-02 05:32:00,57.0,55.0,30.04,West,270,1.0,2.0,93,-99.99,,,-99.99,,2013-04-02 09:32:00,
2013-04-02 05:43:00,56.0,54.0,30.04,West,272,2.0,3.0,93,-99.99,,,-99.99,,2013-04-02 09:43:00,
2013-04-02 05:53:00,56.0,54.0,30.04,West,272,2.0,3.0,93,-99.99,,,-99.99,,2013-04-02 09:53:00,
2013-04-02 06:03:00,56.0,54.0,30.04,West,276,3.0,3.0,93,-99.99,,,-99.99,,2013-04-02 10:03:00,
2013-04-02 06:13:00,55.0,53.0,30.04,NW,305,2.0,3.0,93,-99.99,,,-99.99,,2013-04-02 10:13:00,
2013-04-02 06:24:00,55.0,53.0,30.04,NW,305,2.0,3.0,93,-99.99,,,-99.99,,2013-04-02 10:24:00,
2013-04-02 06:33:00,54.0,53.0,30.05,NNW,343,4.0,6.0,93,-99.99,,,-99.99,,2013-04-02 10:33:00,
2013-04-02 06:42:00,56.0,54.0,30.05,NNW,343,4.0,6.0,94,-99.99,,,-99.99,,2013-04-02 10:42:00,
2013-04-02 06:53:00,56.0,54.0,30.05,NNW,343,4.0,6.0,94,-99.99,,,-99.99,,2013-04-02 10:53:00,
2013-04-02 07:02:00,57.0,55.0,30.04,NNW,344,3.0,4.0,94,-99.99,,,-99.99,,2013-04-02 11:02:00,
2013-04-02 07:12:00,57.0,55.0,30.05,NNW,342,2.0,3.0,94,-99.99,,,-99.99,,2013-04-02 11:12:00,
2013-04-02 07:23:00,57.0,55.0,30.05,NNW,342,2.0,3.0,94,-99.99,,,-99.99,,2013-04-02 11:23:00,
2013-04-02 07:33:00,57.0,55.0,30.05,NNW,342,2.0,3.0,94,-99.99,,,-99.99,,2013-04-02 11:33:00,
2013-04-02 07:43:00,56.0,54.0,30.06,WSW,258,1.0,3.0,94,-99.99,,,-99.99,,2013-04-02 11:43:00,
2013-04-02 07:53:00,56.0,54.0,30.06,WSW,258,1.0,3.0,94,-99.99,,,-99.99,,2013-04-02 11:53:00,
2013-04-02 08:02:00,55.0,53.0,30.07,WNW,292,2.0,3.0,94,-99.99,,,-99.99,,2013-04-02 12:02:00,
2013-04-02 08:12:00,55.0,53.0,30.07,West,267,2.0,3.0,94,-99.99,,,-99.99,,2013-04-02 12:12:00,
2013-04-02 08:23:00,55.0,53.0,30.07,West,267,2.0,3.0,94,-99.99,,,-99.99,,2013-04-02 12:23:00,
2013-04-02 08:32:00,55.0,53.0,30.08,West,268,3.0,4.0,94,-99.99,,,-99.99,,2013-04-02 12:32:00,
2013-04-02 08:42:00,58.0,57.0,30.08,NW,308,3.0,12.0,94,-99.99,,,-99.99,,2013-04-02 12:42:00,
2013-04-02 08:53:00,58.0,57.0,30.08,NW,308,3.0,12.0,94,-99.99,,,-99.99,,2013-04-02 12:53:00,
2013-04-02 09:02:00,62.0,60.0,30.09,NW,311,3.0,5.0,94,-99.99,,,-99.99,,2013-04-02 13:02:00,
2013-04-02 09:12:00,63.0,62.0,30.10,WNW,295,4.0,7.0,94,-99.99,,,-99.99,,2013-04-02 13:12:00,
2013-04-02 09:23:00,63.0,62.0,30.10,WNW,295,4.0,7.0,94,-99.99,,,-99.99,,2013-04-02 13:23:00,
2013-04-02 09:30:00,68.0,61.0,30.11,NW,315,8.0,11.0,79,-99.99,,,-99.99,,2013-04-02 13:30:00,
2013-04-02 09:33:00,64.0,62.0,30.10,NW,306,6.0,11.0,93,-99.99,,,-99.99,,2013-04-02 13:33:00,
2013-04-02 09:42:00,64.0,62.0,30.10,NW,306,6.0,11.0,93,-99.99,,,-99.99,,2013-04-02 13:42:00,
2013-04-02 09:52:00,66.0,62.0,30.11,NW,308,6.0,10.0,88,-99.99,,,-99.99,,2013-04-02 13:52:00,
2013-04-02 10:02:00,68.0,61.0,30.11,NW,315,8.0,11.0,79,-99.99,,,-99.99,,2013-04-02 14:02:00,
2013-04-02 10:13:00,68.0,61.0,30.11,NW,315,8.0,11.0,79,-99.99,,,-99.99,,2013-04-02 14:13:00,
2013-04-02 10:23:00,68.0,61.0,30.11,NW,315,8.0,11.0,79,-99.99,,,-99.99,,2013-04-02 14:23:00,
2013-04-02 10:43:00,72.0,61.0,30.12,NW,304,6.0,10.0,68,-99.99,,,-99.99,,2013-04-02 14:43:00,
2013-04-02 10:52:00,72.0,61.0,30.12,NW,304,6.0,10.0,68,-99.99,,,-99.99,,2013-04-02 14:52:00,
2013-04-02 11:02:00,73.0,61.0,30.12,SW,218,5.0,8.0,65,-99.99,,,-99.99,,2013-04-02 15:02:00,
2013-04-02 11:12:00,74.0,60.0,30.13,West,273,6.0,32.0,61,-99.99,,,-99.99,,2013-04-02 15:12:00,
2013-04-02 11:23:00,74.0,60.0,30.13,West,273,6.0,32.0,61,-99.99,,,-99.99,,2013-04-02 15:23:00,
2013-04-02 11:33:00,74.0,60.0,30.13,West,273,6.0,32.0,61,-99.99,,,-99.99,,2013-04-02 15:33:00,
2013-04-02 11:43:00,77.0,56.0,30.13,NE,45,5.0,9.0,48,-99.99,,,-99.99,,2013-04-02 15:43:00,
2013-04-02 11:58:00,77.0,56.0,30.13,NE,45,5.0,9.0,48,-99.99,,,-99.99,,2013-04-02 15:58:00,
2013-04-02 12:04:00,77.0,55.0,30.13,SE,133,6.0,11.0,46,-99.99,,,-99.99,,2013-04-02 16:04:00,
2013-04-02 12:13:00,79.0,54.0,30.13,East,98,4.0,9.0,42,-99.99,,,-99.99,,2013-04-02 16:13:00,
2013-04-02 12:25:00,79.0,54.0,30.13,East,98,4.0,9.0,42,-99.99,,,-99.99,,2013-04-02 16:25:00,
2013-04-02 12:38:00,79.0,54.0,30.13,East,98,4.0,9.0,42,-99.99,,,-99.99,,2013-04-02 16:38:00,
2013-04-02 12:44:00,79.0,56.0,30.12,SSW,203,6.0,10.0,44,-99.99,,,-99.99,,2013-04-02 16:44:00,
2013-04-02 12:54:00,79.0,56.0,30.12,SSW,203,6.0,10.0,44,-99.99,,,-99.99,,2013-04-02 16:54:00,
2013-04-02 13:06:00,80.0,56.0,30.12,ESE,110,3.0,7.0,44,-99.99,,,-99.99,,2013-04-02 17:06:00,
2013-04-02 13:13:00,79.0,57.0,30.12,ENE,73,4.0,8.0,46,-99.99,,,-99.99,,2013-04-02 17:13:00,
2013-04-02 13:25:00,79.0,57.0,30.12,ENE,73,4.0,8.0,46,-99.99,,,-99.99,,2013-04-02 17:25:00,
2013-04-02 13:35:00,79.0,57.0,30.12,ENE,73,4.0,8.0,46,-99.99,,,-99.99,,2013-04-02 17:35:00,
2013-04-02 13:43:00,79.0,57.0,30.12,ENE,73,4.0,8.0,46,-99.99,,,-99.99,,2013-04-02 17:43:00,
2013-04-02 14:05:00,80.0,55.0,30.11,SSE,150,3.0,5.0,42,-99.99,,,-99.99,,2013-04-02 18:05:00,
2013-04-02 14:13:00,80.0,55.0,30.10,WSW,239,6.0,10.0,42,-99.99,,,-99.99,,2013-04-02 18:13:00,
2013-04-02 14:23:00,80.0,55.0,30.10,WSW,239,6.0,10.0,42,-99.99,,,-99.99,,2013-04-02 18:23:00,
2013-04-02 14:34:00,80.0,55.0,30.10,WSW,239,6.0,10.0,42,-99.99,,,-99.99,,2013-04-02 18:34:00,
2013-04-02 14:43:00,82.0,54.0,30.09,SE,124,4.0,8.0,38,-99.99,,,-99.99,,2013-04-02 18:43:00,
2013-04-02 14:57:00,82.0,54.0,30.09,SE,124,4.0,8.0,38,-99.99,,,-99.99,,2013-04-02 18:57:00,
2013-04-02 15:03:00,83.0,54.0,30.09,South,184,5.0,9.0,37,-99.99,,,-99.99,,2013-04-02 19:03:00,
2013-04-02 15:13:00,81.0,54.0,30.08,East,92,6.0,12.0,39,-99.99,,,-99.99,,2013-04-02 19:13:00,
2013-04-02 15:23:00,81.0,54.0,30.08,East,92,6.0,12.0,39,-99.99,,,-99.99,,2013-04-02 19:23:00,
2013-04-02 15:34:00,83.0,53.0,30.07,SSE,150,4.0,9.0,34,-99.99,,,-99.99,,2013-04-02 19:34:00,
2013-04-02 15:45:00,83.0,52.0,30.07,ENE,75,7.0,11.0,33,-99.99,,,-99.99,,2013-04-02 19:45:00,
2013-04-02 15:57:00,83.0,52.0,30.07,ENE,75,7.0,11.0,33,-99.99,,,-99.99,,2013-04-02 19:57:00,
2013-04-02 16:04:00,83.0,51.0,30.06,East,98,4.0,9.0,32,-99.99,,,-99.99,,2013-04-02 20:04:00,
2013-04-02 16:14:00,85.0,49.0,30.06,ESE,105,5.0,10.0,29,-99.99,,,-99.99,,2013-04-02 20:14:00,
2013-04-02 16:23:00,85.0,49.0,30.06,ESE,105,5.0,10.0,29,-99.99,,,-99.99,,2013-04-02 20:23:00,
2013-04-02 16:34:00,85.0,49.0,30.06,ESE,105,5.0,10.0,29,-99.99,,,-99.99,,2013-04-02 20:34:00,
2013-04-02 16:44:00,85.0,50.0,30.05,East,96,4.0,9.0,29,-99.99,,,-99.99,,2013-04-02 20:44:00,
2013-04-02 16:55:00,85.0,50.0,30.05,East,96,4.0,9.0,29,-99.99,,,-99.99,,2013-04-02 20:55:00,
2013-04-02 17:05:00,84.0,50.0,30.05,East,84,5.0,10.0,31,-99.99,,,-99.99,,2013-04-02 21:05:00,
2013-04-02 17:13:00,83.0,49.0,30.05,SSE,160,2.0,5.0,31,-99.99,,,-99.99,,2013-04-02 21:13:00,
2013-04-02 17:23:00,83.0,49.0,30.05,SSE,160,2.0,5.0,31,-99.99,,,-99.99,,2013-04-02 21:23:00,
2013-04-02 17:34:00,83.0,49.0,30.05,SSE,160,2.0,5.0,31,-99.99,,,-99.99,,2013-04-02 21:34:00,
2013-04-02 17:44:00,85.0,51.0,30.05,ESE,118,9.0,13.0,31,-99.99,,,-99.99,,2013-04-02 21:44:00,
2013-04-02 17:56:00,85.0,51.0,30.05,ESE,118,9.0,13.0,31,-99.99,,,-99.99,,2013-04-02 21:56:00,
2013-04-02 18:04:00,82.0,53.0,30.05,East,88,8.0,12.0,36,-99.99,,,-99.99,,2013-04-02 22:04:00,
2013-04-02 18:14:00,81.0,54.0,30.05,East,87,8.0,12.0,40,-99.99,,,-99.99,,2013-04-02 22:14:00,
2013-04-02 18:25:00,81.0,54.0,30.05,East,87,8.0,12.0,40,-99.99,,,-99.99,,2013-04-02 22:25:00,
2013-04-02 18:33:00,80.0,55.0,30.05,ENE,75,8.0,12.0,42,-99.99,,,-99.99,,2013-04-02 22:33:00,
2013-04-02 18:43:00,80.0,55.0,30.06,East,80,8.0,15.0,41,-99.99,,,-99.99,,2013-04-02 22:43:00,
2013-04-02 18:54:00,80.0,55.0,30.06,East,80,8.0,15.0,41,-99.99,,,-99.99,,2013-04-02 22:54:00,
2013-04-02 19:03:00,79.0,55.0,30.06,East,88,10.0,17.0,43,-99.99,,,-99.99,,2013-04-02 23:03:00,
2013-04-02 19:13:00,78.0,55.0,30.06,East,83,9.0,13.0,45,-99.99,,,-99.99,,2013-04-02 23:13:00,
2013-04-02 19:24:00,78.0,55.0,30.06,East,83,9.0,13.0,45,-99.99,,,-99.99,,2013-04-02 23:24:00,
2013-04-02 19:35:00,78.0,55.0,30.06,East,83,9.0,13.0,45,-99.99,,,-99.99,,2013-04-02 23:35:00,
2013-04-02 19:43:00,77.0,56.0,30.06,East,84,8.0,12.0,49,-99.99,,,-99.99,,2013-04-02 23:43:00,
2013-04-02 19:54:00,77.0,56.0,30.06,East,84,8.0,12.0,49,-99.99,,,-99.99,,2013-04-02 23:54:00,
2013-04-02 20:05:00,75.0,56.0,30.06,East,81,7.0,12.0,51,-99.99,,,-99.99,,2013-04-03 00:05:00,
2013-04-02 20:13:00,74.0,56.0,30.06,East,82,8.0,12.0,52,-99.99,,,-99.99,,2013-04-03 00:13:00,
2013-04-02 20:25:00,74.0,56.0,30.06,East,82,8.0,12.0,52,-99.99,,,-99.99,,2013-04-03 00:25:00,
2013-04-02 20:34:00,73.0,56.0,30.06,East,88,8.0,11.0,54,-99.99,,,-99.99,,2013-04-03 00:34:00,
2013-04-02 20:47:00,72.0,55.0,30.07,East,86,8.0,14.0,56,-99.99,,,-99.99,,2013-04-03 00:47:00,
2013-04-02 20:57:00,72.0,55.0,30.07,East,86,8.0,14.0,56,-99.99,,,-99.99,,2013-04-03 00:57:00,
2013-04-02 21:04:00,71.0,55.0,30.07,East,87,7.0,11.0,57,-99.99,,,-99.99,,2013-04-03 01:04:00,
2013-04-02 21:13:00,70.0,55.0,30.08,East,89,6.0,10.0,59,-99.99,,,-99.99,,2013-04-03 01:13:00,
2013-04-02 21:23:00,70.0,55.0,30.08,East,89,6.0,10.0,59,-99.99,,,-99.99,,2013-04-03 01:23:00,
2013-04-02 21:33:00,69.0,56.0,30.09,East,80,5.0,8.0,61,-99.99,,,-99.99,,2013-04-03 01:33:00,
2013-04-02 21:42:00,69.0,56.0,30.09,ENE,77,6.0,9.0,63,-99.99,,,-99.99,,2013-04-03 01:42:00,
2013-04-02 21:54:00,69.0,56.0,30.09,ENE,77,6.0,9.0,63,-99.99,,,-99.99,,2013-04-03 01:54:00,
2013-04-02 22:04:00,68.0,56.0,30.09,East,79,5.0,8.0,65,-99.99,,,-99.99,,2013-04-03 02:04:00,
2013-04-02 22:13:00,67.0,57.0,30.09,ENE,78,5.0,7.0,67,-99.99,,,-99.99,,2013-04-03 02:13:00,
2013-04-02 22:25:00,67.0,57.0,30.09,ENE,78,5.0,7.0,67,-99.99,,,-99.99,,2013-04-03 02:25:00,
2013-04-02 22:34:00,67.0,57.0,30.09,ENE,78,5.0,7.0,67,-99.99,,,-99.99,,2013-04-03 02:34:00,
2013-04-02 22:44:00,66.0,57.0,30.10,East,92,5.0,7.0,70,-99.99,,,-99.99,,2013-04-03 02:44:00,
2013-04-02 22:53:00,66.0,57.0,30.10,East,92,5.0,7.0,70,-99.99,,,-99.99,,2013-04-03 02:53:00,
2013-04-02 23:06:00,66.0,56.0,30.11,East,96,5.0,7.0,71,-99.99,,,-99.99,,2013-04-03 03:06:00,
2013-04-02 23:14:00,65.0,56.0,30.11,East,91,5.0,7.0,72,-99.99,,,-99.99,,2013-04-03 03:14:00,
2013-04-02 23:23:00,65.0,56.0,30.11,East,91,5.0,7.0,72,-99.99,,,-99.99,,2013-04-03 03:23:00,
2013-04-02 23:38:00,65.0,56.0,30.11,East,79,4.0,7.0,73,-99.99,,,-99.99,,2013-04-03 03:38:00,
2013-04-02 23:44:00,64.0,56.0,30.11,ENE,73,3.0,5.0,74,-99.99,,,-99.99,,2013-04-03 03:44:00,
2013-04-02 23:54:00,64.0,56.0,30.11,ENE,73,3.0,5.0,74,-99.99,,,-99.99,,2013-04-03 03:54:00,